TAF KRDU
KRDU 280538Z 2806/2906 19004KT P6SM SCT250 FM281400 25007KT P6SM SCT100 BKN250 FM282300 31008KT P6SM BKN250=
METAR KRDU
WC KRDU
WS KRDU
WV KRDU